sensor_id;sensor_type;location;lat;lon;timestamp;pressure;altitude;pressure_sealevel;temperature;humidity
67377;BME280;54261;46.086;6.588;2023-05-07T00:02:55;92424.63;;;16.98;36.80
67377;BME280;54261;46.086;6.588;2023-05-07T00:07:57;92425.47;;;16.43;37.61
67377;BME280;54261;46.086;6.588;2023-05-07T00:13:00;92422.66;;;16.20;38.46
67377;BME280;54261;46.086;6.588;2023-05-07T00:18:02;92431.53;;;16.36;37.44
67377;BME280;54261;46.086;6.588;2023-05-07T00:23:04;92438.88;;;16.56;37.44
67377;BME280;54261;46.086;6.588;2023-05-07T00:28:06;92434.09;;;16.49;36.72
67377;BME280;54261;46.086;6.588;2023-05-07T00:33:08;92440.88;;;16.03;37.56
67377;BME280;54261;46.086;6.588;2023-05-07T00:38:10;92449.78;;;16.40;37.09
67377;BME280;54261;46.086;6.588;2023-05-07T00:43:12;92447.75;;;16.76;36.56
67377;BME280;54261;46.086;6.588;2023-05-07T00:48:14;92442.88;;;17.25;36.11
67377;BME280;54261;46.086;6.588;2023-05-07T00:53:16;92441.19;;;17.16;36.44
67377;BME280;54261;46.086;6.588;2023-05-07T00:58:19;92431.34;;;16.85;36.14
67377;BME280;54261;46.086;6.588;2023-05-07T01:03:21;92432.19;;;16.89;35.64
67377;BME280;54261;46.086;6.588;2023-05-07T01:08:23;92436.69;;;15.90;37.33
67377;BME280;54261;46.086;6.588;2023-05-07T01:13:28;92442.38;;;16.36;36.34
67377;BME280;54261;46.086;6.588;2023-05-07T01:18:31;92442.00;;;16.97;35.29
67377;BME280;54261;46.086;6.588;2023-05-07T01:23:33;92445.03;;;16.17;36.53
67377;BME280;54261;46.086;6.588;2023-05-07T01:28:35;92449.84;;;16.43;36.82
67377;BME280;54261;46.086;6.588;2023-05-07T01:33:38;92453.34;;;16.44;36.84
67377;BME280;54261;46.086;6.588;2023-05-07T01:38:42;92458.00;;;16.83;35.78
67377;BME280;54261;46.086;6.588;2023-05-07T01:43:45;92452.88;;;17.20;35.64
67377;BME280;54261;46.086;6.588;2023-05-07T01:48:49;92453.97;;;16.57;36.89
67377;BME280;54261;46.086;6.588;2023-05-07T01:53:52;92446.78;;;16.45;37.33
67377;BME280;54261;46.086;6.588;2023-05-07T01:58:55;92450.34;;;17.08;35.87
67377;BME280;54261;46.086;6.588;2023-05-07T02:03:57;92451.81;;;16.27;37.85
67377;BME280;54261;46.086;6.588;2023-05-07T02:09:02;92440.94;;;16.43;37.19
67377;BME280;54261;46.086;6.588;2023-05-07T02:14:04;92451.13;;;16.69;37.64
67377;BME280;54261;46.086;6.588;2023-05-07T02:19:06;92457.63;;;16.64;36.21
67377;BME280;54261;46.086;6.588;2023-05-07T02:24:08;92442.78;;;16.98;36.19
67377;BME280;54261;46.086;6.588;2023-05-07T02:29:10;92426.03;;;16.33;37.63
67377;BME280;54261;46.086;6.588;2023-05-07T02:34:13;92448.75;;;15.92;38.23
67377;BME280;54261;46.086;6.588;2023-05-07T02:39:16;92454.44;;;15.55;38.81
67377;BME280;54261;46.086;6.588;2023-05-07T02:44:18;92462.81;;;16.54;37.86
67377;BME280;54261;46.086;6.588;2023-05-07T02:49:23;92463.41;;;16.83;37.00
67377;BME280;54261;46.086;6.588;2023-05-07T02:54:26;92456.88;;;16.28;37.72
67377;BME280;54261;46.086;6.588;2023-05-07T02:59:28;92467.63;;;16.80;37.12
67377;BME280;54261;46.086;6.588;2023-05-07T03:04:30;92454.81;;;16.21;36.92
67377;BME280;54261;46.086;6.588;2023-05-07T03:09:33;92481.34;;;16.51;37.32
67377;BME280;54261;46.086;6.588;2023-05-07T03:14:35;92492.41;;;17.02;36.03
67377;BME280;54261;46.086;6.588;2023-05-07T03:19:37;92494.16;;;17.33;35.90
67377;BME280;54261;46.086;6.588;2023-05-07T03:24:39;92495.09;;;17.88;35.23
67377;BME280;54261;46.086;6.588;2023-05-07T03:29:41;92503.41;;;17.52;35.57
67377;BME280;54261;46.086;6.588;2023-05-07T03:34:43;92500.66;;;17.72;34.85
67377;BME280;54261;46.086;6.588;2023-05-07T03:39:47;92528.84;;;17.90;34.82
67377;BME280;54261;46.086;6.588;2023-05-07T03:44:49;92541.47;;;17.56;35.21
67377;BME280;54261;46.086;6.588;2023-05-07T03:49:51;92543.44;;;18.05;35.63
67377;BME280;54261;46.086;6.588;2023-05-07T03:54:58;92548.47;;;17.17;38.47
67377;BME280;54261;46.086;6.588;2023-05-07T04:00:00;92537.16;;;16.76;40.58
67377;BME280;54261;46.086;6.588;2023-05-07T04:05:06;92525.94;;;16.38;42.13
67377;BME280;54261;46.086;6.588;2023-05-07T04:10:08;92495.25;;;16.14;41.51
67377;BME280;54261;46.086;6.588;2023-05-07T04:15:13;92521.97;;;15.84;42.26
67377;BME280;54261;46.086;6.588;2023-05-07T04:20:16;92515.75;;;15.35;43.27
67377;BME280;54261;46.086;6.588;2023-05-07T04:25:23;92528.25;;;15.39;43.16
67377;BME280;54261;46.086;6.588;2023-05-07T04:30:32;92529.38;;;15.38;43.29
67377;BME280;54261;46.086;6.588;2023-05-07T04:35:36;92521.56;;;14.39;44.91
67377;BME280;54261;46.086;6.588;2023-05-07T04:40:39;92511.38;;;12.56;49.99
67377;BME280;54261;46.086;6.588;2023-05-07T04:45:45;92492.22;;;14.37;46.79
67377;BME280;54261;46.086;6.588;2023-05-07T04:50:48;92506.28;;;14.84;46.00
67377;BME280;54261;46.086;6.588;2023-05-07T04:55:57;92524.34;;;15.24;45.14
67377;BME280;54261;46.086;6.588;2023-05-07T05:01:06;92522.59;;;15.61;44.56
67377;BME280;54261;46.086;6.588;2023-05-07T05:06:08;92517.78;;;15.25;44.34
67377;BME280;54261;46.086;6.588;2023-05-07T05:11:10;92527.06;;;14.96;45.20
67377;BME280;54261;46.086;6.588;2023-05-07T05:16:12;92526.06;;;15.17;45.19
67377;BME280;54261;46.086;6.588;2023-05-07T05:21:15;92533.66;;;15.39;44.61
67377;BME280;54261;46.086;6.588;2023-05-07T05:26:19;92526.78;;;15.74;44.21
67377;BME280;54261;46.086;6.588;2023-05-07T05:31:23;92512.53;;;15.93;43.57
67377;BME280;54261;46.086;6.588;2023-05-07T05:36:26;92523.81;;;16.12;44.13
67377;BME280;54261;46.086;6.588;2023-05-07T05:41:31;92510.78;;;16.01;43.76
67377;BME280;54261;46.086;6.588;2023-05-07T05:46:33;92506.34;;;16.45;43.31
67377;BME280;54261;46.086;6.588;2023-05-07T05:51:37;92502.75;;;16.21;43.85
67377;BME280;54261;46.086;6.588;2023-05-07T05:56:39;92499.72;;;16.78;43.53
67377;BME280;54261;46.086;6.588;2023-05-07T06:01:41;92488.47;;;17.19;42.72
67377;BME280;54261;46.086;6.588;2023-05-07T06:06:43;92504.72;;;16.96;43.60
67377;BME280;54261;46.086;6.588;2023-05-07T06:11:46;92513.59;;;17.59;42.19
67377;BME280;54261;46.086;6.588;2023-05-07T06:16:47;92529.97;;;16.28;44.76
67377;BME280;54261;46.086;6.588;2023-05-07T06:21:50;92525.25;;;13.47;50.38
67377;BME280;54261;46.086;6.588;2023-05-07T06:26:52;92531.56;;;13.64;51.10
67377;BME280;54261;46.086;6.588;2023-05-07T06:31:53;92534.28;;;13.51;53.09
67377;BME280;54261;46.086;6.588;2023-05-07T06:36:56;92526.84;;;15.62;48.55
67377;BME280;54261;46.086;6.588;2023-05-07T06:42:13;92520.13;;;16.20;45.96
67377;BME280;54261;46.086;6.588;2023-05-07T06:47:17;92506.47;;;17.07;44.98
67377;BME280;54261;46.086;6.588;2023-05-07T06:52:23;92515.94;;;16.06;45.65
67377;BME280;54261;46.086;6.588;2023-05-07T06:57:27;92523.81;;;17.03;44.80
67377;BME280;54261;46.086;6.588;2023-05-07T07:02:28;92523.88;;;16.15;44.22
67377;BME280;54261;46.086;6.588;2023-05-07T07:07:30;92523.56;;;12.54;55.46
67377;BME280;54261;46.086;6.588;2023-05-07T07:12:32;92528.47;;;11.31;59.32
67377;BME280;54261;46.086;6.588;2023-05-07T07:17:34;92523.13;;;14.93;52.70
67377;BME280;54261;46.086;6.588;2023-05-07T07:22:36;92524.16;;;16.46;48.52
67377;BME280;54261;46.086;6.588;2023-05-07T07:27:38;92528.16;;;16.88;46.15
67377;BME280;54261;46.086;6.588;2023-05-07T07:32:42;92518.28;;;16.60;45.16
67377;BME280;54261;46.086;6.588;2023-05-07T07:37:44;92519.47;;;16.98;45.06
67377;BME280;54261;46.086;6.588;2023-05-07T07:42:47;92529.38;;;15.71;46.40
67377;BME280;54261;46.086;6.588;2023-05-07T07:47:49;92524.28;;;12.21;54.13
67377;BME280;54261;46.086;6.588;2023-05-07T07:52:51;92532.47;;;14.42;49.11
67377;BME280;54261;46.086;6.588;2023-05-07T07:57:54;92514.59;;;13.38;51.50
67377;BME280;54261;46.086;6.588;2023-05-07T08:02:57;92526.72;;;12.98;54.13
67377;BME280;54261;46.086;6.588;2023-05-07T08:08:05;92524.09;;;13.82;53.91
67377;BME280;54261;46.086;6.588;2023-05-07T08:13:09;92527.75;;;11.91;56.72
67377;BME280;54261;46.086;6.588;2023-05-07T08:18:13;92535.59;;;11.75;58.74
67377;BME280;54261;46.086;6.588;2023-05-07T08:23:16;92534.72;;;12.01;61.44
67377;BME280;54261;46.086;6.588;2023-05-07T08:28:19;92540.19;;;12.98;58.63
67377;BME280;54261;46.086;6.588;2023-05-07T08:33:23;92552.31;;;14.34;54.67
67377;BME280;54261;46.086;6.588;2023-05-07T08:38:25;92555.22;;;16.68;49.18
67377;BME280;54261;46.086;6.588;2023-05-07T08:43:28;92547.31;;;17.38;43.89
67377;BME280;54261;46.086;6.588;2023-05-07T08:48:30;92544.97;;;15.29;50.40
67377;BME280;54261;46.086;6.588;2023-05-07T08:53:41;92567.84;;;17.59;44.49
67377;BME280;54261;46.086;6.588;2023-05-07T08:58:47;92548.91;;;12.53;53.74
67377;BME280;54261;46.086;6.588;2023-05-07T09:03:51;92562.16;;;15.08;50.10
67377;BME280;54261;46.086;6.588;2023-05-07T09:08:55;92537.91;;;13.68;48.06
67377;BME280;54261;46.086;6.588;2023-05-07T09:14:02;92557.34;;;15.02;47.73
67377;BME280;54261;46.086;6.588;2023-05-07T09:19:09;92550.84;;;12.73;50.93
67377;BME280;54261;46.086;6.588;2023-05-07T09:24:16;92560.75;;;14.86;47.69
67377;BME280;54261;46.086;6.588;2023-05-07T09:29:19;92552.88;;;14.15;48.24
67377;BME280;54261;46.086;6.588;2023-05-07T09:34:21;92560.16;;;14.64;48.35
67377;BME280;54261;46.086;6.588;2023-05-07T09:39:24;92536.75;;;14.44;46.26
67377;BME280;54261;46.086;6.588;2023-05-07T09:44:26;92560.72;;;15.56;45.55
67377;BME280;54261;46.086;6.588;2023-05-07T09:49:29;92554.06;;;14.67;45.64
67377;BME280;54261;46.086;6.588;2023-05-07T09:54:37;92552.78;;;14.77;46.61
67377;BME280;54261;46.086;6.588;2023-05-07T09:59:42;92557.59;;;14.84;46.83
67377;BME280;54261;46.086;6.588;2023-05-07T10:04:48;92543.16;;;15.81;44.02
67377;BME280;54261;46.086;6.588;2023-05-07T10:09:54;92526.78;;;14.73;46.68
67377;BME280;54261;46.086;6.588;2023-05-07T10:15:09;92555.88;;;14.63;47.17
67377;BME280;54261;46.086;6.588;2023-05-07T10:20:13;92558.53;;;13.64;49.47
67377;BME280;54261;46.086;6.588;2023-05-07T10:25:21;92563.63;;;16.27;44.26
67377;BME280;54261;46.086;6.588;2023-05-07T10:35:49;92563.25;;;14.79;46.73
67377;BME280;54261;46.086;6.588;2023-05-07T10:40:52;92566.25;;;13.87;48.84
67377;BME280;54261;46.086;6.588;2023-05-07T10:46:17;92572.97;;;15.08;48.68
67377;BME280;54261;46.086;6.588;2023-05-07T10:51:30;92578.75;;;15.51;46.85
67377;BME280;54261;46.086;6.588;2023-05-07T10:56:45;92574.75;;;15.45;46.18
67377;BME280;54261;46.086;6.588;2023-05-07T11:02:04;92563.53;;;13.99;51.11
67377;BME280;54261;46.086;6.588;2023-05-07T11:07:30;92567.13;;;12.98;51.81
67377;BME280;54261;46.086;6.588;2023-05-07T11:17:54;92571.03;;;12.58;55.62
67377;BME280;54261;46.086;6.588;2023-05-07T11:22:57;92573.66;;;14.64;51.28
67377;BME280;54261;46.086;6.588;2023-05-07T11:28:09;92549.91;;;11.88;56.53
67377;BME280;54261;46.086;6.588;2023-05-07T11:33:18;92571.59;;;12.22;59.53
67377;BME280;54261;46.086;6.588;2023-05-07T11:38:23;92586.38;;;15.05;52.50
67377;BME280;54261;46.086;6.588;2023-05-07T11:43:26;92557.34;;;16.23;48.42
67377;BME280;54261;46.086;6.588;2023-05-07T11:48:28;92575.94;;;16.60;46.92
67377;BME280;54261;46.086;6.588;2023-05-07T11:53:38;92571.28;;;13.29;54.60
67377;BME280;54261;46.086;6.588;2023-05-07T11:58:41;92581.53;;;11.43;61.35
67377;BME280;54261;46.086;6.588;2023-05-07T12:03:44;92584.31;;;12.64;59.93
67377;BME280;54261;46.086;6.588;2023-05-07T12:08:49;92596.31;;;11.11;65.16
67377;BME280;54261;46.086;6.588;2023-05-07T12:13:51;92587.38;;;14.22;58.53
67377;BME280;54261;46.086;6.588;2023-05-07T12:18:55;92610.31;;;15.06;52.49
67377;BME280;54261;46.086;6.588;2023-05-07T12:23:57;92610.72;;;12.70;58.91
67377;BME280;54261;46.086;6.588;2023-05-07T12:28:59;92593.16;;;11.00;67.24
67377;BME280;54261;46.086;6.588;2023-05-07T12:34:02;92625.84;;;13.26;58.38
67377;BME280;54261;46.086;6.588;2023-05-07T12:39:05;92634.28;;;9.93;70.26
67377;BME280;54261;46.086;6.588;2023-05-07T12:44:07;92604.31;;;9.91;70.08
67377;BME280;54261;46.086;6.588;2023-05-07T12:49:09;92645.97;;;10.46;70.59
67377;BME280;54261;46.086;6.588;2023-05-07T12:54:11;92656.59;;;10.87;67.43
67377;BME280;54261;46.086;6.588;2023-05-07T12:59:13;92656.97;;;12.04;65.46
67377;BME280;54261;46.086;6.588;2023-05-07T13:04:14;92670.81;;;9.89;70.32
67377;BME280;54261;46.086;6.588;2023-05-07T13:09:16;92661.22;;;10.28;70.20
67377;BME280;54261;46.086;6.588;2023-05-07T13:14:18;92682.16;;;10.58;65.80
67377;BME280;54261;46.086;6.588;2023-05-07T13:19:22;92681.31;;;11.07;65.93
67377;BME280;54261;46.086;6.588;2023-05-07T13:24:24;92689.75;;;11.79;64.76
67377;BME280;54261;46.086;6.588;2023-05-07T13:29:26;92679.75;;;12.45;63.72
67377;BME280;54261;46.086;6.588;2023-05-07T13:34:31;92686.00;;;11.45;62.61
67377;BME280;54261;46.086;6.588;2023-05-07T13:39:33;92687.91;;;11.44;64.65
67377;BME280;54261;46.086;6.588;2023-05-07T13:44:35;92676.56;;;14.25;59.10
67377;BME280;54261;46.086;6.588;2023-05-07T13:49:37;92679.84;;;14.56;55.50
67377;BME280;54261;46.086;6.588;2023-05-07T13:54:39;92684.81;;;13.62;55.43
67377;BME280;54261;46.086;6.588;2023-05-07T13:59:42;92680.06;;;9.28;68.81
67377;BME280;54261;46.086;6.588;2023-05-07T14:04:44;92680.84;;;9.43;70.41
67377;BME280;54261;46.086;6.588;2023-05-07T14:09:46;92686.50;;;11.29;65.71
67377;BME280;54261;46.086;6.588;2023-05-07T14:14:48;92690.28;;;11.37;62.54
67377;BME280;54261;46.086;6.588;2023-05-07T14:19:51;92688.84;;;9.97;67.94
67377;BME280;54261;46.086;6.588;2023-05-07T14:24:55;92686.22;;;10.06;67.77
67377;BME280;54261;46.086;6.588;2023-05-07T14:30:07;92687.19;;;10.10;67.89
67377;BME280;54261;46.086;6.588;2023-05-07T14:35:09;92689.69;;;10.47;66.39
67377;BME280;54261;46.086;6.588;2023-05-07T14:40:12;92688.56;;;11.06;65.93
67377;BME280;54261;46.086;6.588;2023-05-07T14:45:15;92697.31;;;10.63;65.50
67377;BME280;54261;46.086;6.588;2023-05-07T14:50:17;92692.38;;;10.47;65.95
67377;BME280;54261;46.086;6.588;2023-05-07T14:55:19;92697.34;;;10.98;65.04
67377;BME280;54261;46.086;6.588;2023-05-07T15:00:21;92701.34;;;10.33;65.60
67377;BME280;54261;46.086;6.588;2023-05-07T15:05:23;92707.78;;;9.24;70.79
67377;BME280;54261;46.086;6.588;2023-05-07T15:10:25;92704.91;;;10.69;65.48
67377;BME280;54261;46.086;6.588;2023-05-07T15:15:27;92716.09;;;12.60;61.61
67377;BME280;54261;46.086;6.588;2023-05-07T15:20:31;92707.03;;;12.65;58.44
67377;BME280;54261;46.086;6.588;2023-05-07T15:25:33;92707.22;;;10.53;63.53
67377;BME280;54261;46.086;6.588;2023-05-07T15:30:35;92718.13;;;9.16;69.84
67377;BME280;54261;46.086;6.588;2023-05-07T15:35:37;92712.41;;;9.55;69.19
67377;BME280;54261;46.086;6.588;2023-05-07T15:40:39;92715.50;;;9.25;69.08
67377;BME280;54261;46.086;6.588;2023-05-07T15:45:44;92719.97;;;10.07;67.99
67377;BME280;54261;46.086;6.588;2023-05-07T15:50:46;92727.03;;;10.26;66.87
67377;BME280;54261;46.086;6.588;2023-05-07T15:55:47;92727.78;;;13.46;61.62
67377;BME280;54261;46.086;6.588;2023-05-07T16:00:50;92723.06;;;14.68;57.75
67377;BME280;54261;46.086;6.588;2023-05-07T16:05:52;92729.03;;;15.52;54.74
67377;BME280;54261;46.086;6.588;2023-05-07T16:10:54;92721.97;;;8.17;70.56
67377;BME280;54261;46.086;6.588;2023-05-07T16:15:57;92740.34;;;10.48;65.67
67377;BME280;54261;46.086;6.588;2023-05-07T16:20:59;92741.50;;;11.06;61.87
67377;BME280;54261;46.086;6.588;2023-05-07T16:26:01;92731.66;;;11.89;61.14
67377;BME280;54261;46.086;6.588;2023-05-07T16:31:08;92714.00;;;12.36;55.75
67377;BME280;54261;46.086;6.588;2023-05-07T16:36:10;92738.78;;;11.58;58.06
67377;BME280;54261;46.086;6.588;2023-05-07T16:41:12;92737.03;;;13.36;56.43
67377;BME280;54261;46.086;6.588;2023-05-07T16:46:14;92743.72;;;13.08;55.69
67377;BME280;54261;46.086;6.588;2023-05-07T16:51:15;92743.22;;;13.36;56.55
67377;BME280;54261;46.086;6.588;2023-05-07T16:56:17;92744.00;;;14.72;52.91
67377;BME280;54261;46.086;6.588;2023-05-07T17:01:19;92740.13;;;15.22;51.17
67377;BME280;54261;46.086;6.588;2023-05-07T17:06:21;92740.84;;;14.69;50.68
67377;BME280;54261;46.086;6.588;2023-05-07T17:11:23;92746.47;;;14.52;50.36
67377;BME280;54261;46.086;6.588;2023-05-07T17:16:24;92743.84;;;12.91;52.69
67377;BME280;54261;46.086;6.588;2023-05-07T17:21:27;92758.88;;;14.32;52.31
67377;BME280;54261;46.086;6.588;2023-05-07T17:26:28;92754.91;;;13.19;52.82
67377;BME280;54261;46.086;6.588;2023-05-07T17:31:32;92757.69;;;13.32;54.28
67377;BME280;54261;46.086;6.588;2023-05-07T17:36:33;92755.72;;;12.03;56.33
67377;BME280;54261;46.086;6.588;2023-05-07T17:41:36;92750.31;;;13.62;53.43
67377;BME280;54261;46.086;6.588;2023-05-07T17:46:38;92765.16;;;14.82;50.34
67377;BME280;54261;46.086;6.588;2023-05-07T17:51:39;92766.72;;;15.20;48.78
67377;BME280;54261;46.086;6.588;2023-05-07T17:56:54;92777.59;;;12.49;53.28
67377;BME280;54261;46.086;6.588;2023-05-07T18:01:56;92776.31;;;13.46;53.67
67377;BME280;54261;46.086;6.588;2023-05-07T18:06:58;92759.06;;;14.73;50.34
67377;BME280;54261;46.086;6.588;2023-05-07T18:12:00;92779.22;;;14.88;48.79
67377;BME280;54261;46.086;6.588;2023-05-07T18:17:02;92784.19;;;15.10;48.27
67377;BME280;54261;46.086;6.588;2023-05-07T18:22:04;92778.22;;;14.80;48.96
67377;BME280;54261;46.086;6.588;2023-05-07T18:27:06;92792.72;;;15.50;46.41
67377;BME280;54261;46.086;6.588;2023-05-07T18:32:07;92801.81;;;15.70;45.99
67377;BME280;54261;46.086;6.588;2023-05-07T18:37:09;92803.66;;;15.41;45.62
67377;BME280;54261;46.086;6.588;2023-05-07T18:42:11;92775.25;;;15.60;45.14
67377;BME280;54261;46.086;6.588;2023-05-07T18:47:13;92800.84;;;15.91;44.53
67377;BME280;54261;46.086;6.588;2023-05-07T18:52:16;92789.66;;;16.05;44.48
67377;BME280;54261;46.086;6.588;2023-05-07T18:57:18;92806.69;;;16.34;43.81
67377;BME280;54261;46.086;6.588;2023-05-07T19:02:20;92814.59;;;16.27;43.60
67377;BME280;54261;46.086;6.588;2023-05-07T19:07:22;92815.47;;;16.02;43.46
67377;BME280;54261;46.086;6.588;2023-05-07T19:12:24;92827.34;;;16.26;43.37
67377;BME280;54261;46.086;6.588;2023-05-07T19:17:26;92833.53;;;16.27;43.05
67377;BME280;54261;46.086;6.588;2023-05-07T19:22:27;92838.94;;;16.11;43.03
67377;BME280;54261;46.086;6.588;2023-05-07T19:27:29;92833.56;;;15.86;43.33
67377;BME280;54261;46.086;6.588;2023-05-07T19:32:31;92832.13;;;15.76;43.50
67377;BME280;54261;46.086;6.588;2023-05-07T19:37:33;92853.72;;;15.88;43.13
67377;BME280;54261;46.086;6.588;2023-05-07T19:42:35;92860.31;;;15.25;43.65
67377;BME280;54261;46.086;6.588;2023-05-07T19:47:36;92857.63;;;15.50;44.11
67377;BME280;54261;46.086;6.588;2023-05-07T19:52:38;92862.03;;;15.30;43.76
67377;BME280;54261;46.086;6.588;2023-05-07T19:57:40;92874.31;;;15.39;43.97
67377;BME280;54261;46.086;6.588;2023-05-07T20:02:42;92863.38;;;15.48;43.79
67377;BME280;54261;46.086;6.588;2023-05-07T20:07:44;92882.97;;;15.70;43.39
67377;BME280;54261;46.086;6.588;2023-05-07T20:12:46;92886.44;;;15.08;45.01
67377;BME280;54261;46.086;6.588;2023-05-07T20:17:48;92896.81;;;15.81;43.86
67377;BME280;54261;46.086;6.588;2023-05-07T20:22:50;92901.84;;;15.95;43.66
67377;BME280;54261;46.086;6.588;2023-05-07T20:27:52;92896.72;;;15.65;43.11
67377;BME280;54261;46.086;6.588;2023-05-07T20:32:54;92882.38;;;15.89;43.32
67377;BME280;54261;46.086;6.588;2023-05-07T20:37:56;92899.97;;;15.83;42.74
67377;BME280;54261;46.086;6.588;2023-05-07T20:42:59;92902.56;;;15.54;42.46
67377;BME280;54261;46.086;6.588;2023-05-07T20:48:01;92895.69;;;14.61;44.45
67377;BME280;54261;46.086;6.588;2023-05-07T20:53:03;92901.50;;;14.97;44.36
67377;BME280;54261;46.086;6.588;2023-05-07T20:58:05;92900.91;;;15.37;44.04
67377;BME280;54261;46.086;6.588;2023-05-07T21:03:07;92894.47;;;15.42;43.80
67377;BME280;54261;46.086;6.588;2023-05-07T21:08:09;92876.31;;;15.55;43.69
67377;BME280;54261;46.086;6.588;2023-05-07T21:13:12;92889.72;;;15.76;43.20
67377;BME280;54261;46.086;6.588;2023-05-07T21:18:14;92865.38;;;15.76;43.24
67377;BME280;54261;46.086;6.588;2023-05-07T21:23:16;92899.13;;;16.07;43.22
67377;BME280;54261;46.086;6.588;2023-05-07T21:28:18;92898.63;;;15.77;42.62
67377;BME280;54261;46.086;6.588;2023-05-07T21:33:20;92894.00;;;15.77;42.97
67377;BME280;54261;46.086;6.588;2023-05-07T21:38:22;92902.41;;;15.88;42.86
67377;BME280;54261;46.086;6.588;2023-05-07T21:43:24;92899.06;;;15.79;42.75
67377;BME280;54261;46.086;6.588;2023-05-07T21:48:26;92892.41;;;15.89;42.59
67377;BME280;54261;46.086;6.588;2023-05-07T21:53:28;92881.47;;;15.73;42.59
67377;BME280;54261;46.086;6.588;2023-05-07T21:58:30;92877.66;;;15.61;42.70
67377;BME280;54261;46.086;6.588;2023-05-07T22:03:32;92898.53;;;15.61;42.92
67377;BME280;54261;46.086;6.588;2023-05-07T22:08:34;92891.28;;;15.77;43.00
67377;BME280;54261;46.086;6.588;2023-05-07T22:13:36;92885.00;;;15.61;43.00
67377;BME280;54261;46.086;6.588;2023-05-07T22:18:38;92885.09;;;15.77;43.51
67377;BME280;54261;46.086;6.588;2023-05-07T22:23:40;92893.31;;;15.80;43.48
67377;BME280;54261;46.086;6.588;2023-05-07T22:28:41;92878.63;;;15.94;43.28
67377;BME280;54261;46.086;6.588;2023-05-07T22:33:43;92890.00;;;16.12;42.95
67377;BME280;54261;46.086;6.588;2023-05-07T22:38:45;92887.78;;;15.89;42.85
67377;BME280;54261;46.086;6.588;2023-05-07T22:43:47;92894.44;;;15.79;43.09
67377;BME280;54261;46.086;6.588;2023-05-07T22:48:49;92898.91;;;16.00;43.04
67377;BME280;54261;46.086;6.588;2023-05-07T22:53:51;92894.13;;;15.68;43.42
67377;BME280;54261;46.086;6.588;2023-05-07T22:58:52;92891.38;;;15.93;43.15
67377;BME280;54261;46.086;6.588;2023-05-07T23:03:54;92891.81;;;16.08;43.01
67377;BME280;54261;46.086;6.588;2023-05-07T23:08:56;92889.97;;;15.59;42.74
67377;BME280;54261;46.086;6.588;2023-05-07T23:13:59;92894.75;;;15.03;44.05
67377;BME280;54261;46.086;6.588;2023-05-07T23:19:01;92890.53;;;15.64;43.96
67377;BME280;54261;46.086;6.588;2023-05-07T23:24:03;92895.09;;;15.89;43.66
67377;BME280;54261;46.086;6.588;2023-05-07T23:29:05;92889.25;;;15.87;43.20
67377;BME280;54261;46.086;6.588;2023-05-07T23:34:07;92880.94;;;15.17;43.83
67377;BME280;54261;46.086;6.588;2023-05-07T23:39:09;92888.97;;;15.38;44.72
67377;BME280;54261;46.086;6.588;2023-05-07T23:44:11;92883.84;;;15.74;43.90
67377;BME280;54261;46.086;6.588;2023-05-07T23:49:14;92879.88;;;15.84;43.68
67377;BME280;54261;46.086;6.588;2023-05-07T23:54:15;92883.81;;;15.99;43.23
67377;BME280;54261;46.086;6.588;2023-05-07T23:59:17;92875.25;;;15.97;42.84
